sensor_id;sensor_type;location;lat;lon;timestamp;temperature;humidity
41547;DHT22;27271;45.412;10.852;2024-01-06T05:04:01;7.00;99.90
41547;DHT22;27271;45.412;10.852;2024-01-06T05:07:24;6.80;90.40
41547;DHT22;27271;45.412;10.852;2024-01-06T05:10:51;6.90;99.90
41547;DHT22;27271;45.412;10.852;2024-01-06T05:14:14;7.00;88.30
41547;DHT22;27271;45.412;10.852;2024-01-06T05:17:36;6.90;27.30
41547;DHT22;27271;45.412;10.852;2024-01-06T05:20:58;6.80;51.70
41547;DHT22;27271;45.412;10.852;2024-01-06T05:24:21;6.80;82.60
41547;DHT22;27271;45.412;10.852;2024-01-06T05:27:43;6.80;19.80
41547;DHT22;27271;45.412;10.852;2024-01-06T05:31:05;6.70;1.00
41547;DHT22;27271;45.412;10.852;2024-01-06T05:34:28;6.70;80.60
41547;DHT22;27271;45.412;10.852;2024-01-06T05:37:51;6.60;87.00
41547;DHT22;27271;45.412;10.852;2024-01-06T05:41:13;6.70;99.90
41547;DHT22;27271;45.412;10.852;2024-01-06T05:44:36;6.80;99.90
41547;DHT22;27271;45.412;10.852;2024-01-06T05:47:59;6.80;99.90
41547;DHT22;27271;45.412;10.852;2024-01-06T05:51:22;6.80;99.90
41547;DHT22;27271;45.412;10.852;2024-01-06T05:54:44;6.90;99.90
41547;DHT22;27271;45.412;10.852;2024-01-06T05:58:07;6.90;99.90
41547;DHT22;27271;45.412;10.852;2024-01-06T06:01:29;6.90;99.90
41547;DHT22;27271;45.412;10.852;2024-01-06T06:04:52;7.00;99.90
41547;DHT22;27271;45.412;10.852;2024-01-06T06:08:14;6.90;99.90
41547;DHT22;27271;45.412;10.852;2024-01-06T06:11:37;6.80;99.90
41547;DHT22;27271;45.412;10.852;2024-01-06T06:15:00;6.90;99.90
41547;DHT22;27271;45.412;10.852;2024-01-06T06:18:23;6.90;99.90
41547;DHT22;27271;45.412;10.852;2024-01-06T06:21:46;6.90;99.90
41547;DHT22;27271;45.412;10.852;2024-01-06T06:25:08;7.00;99.90
41547;DHT22;27271;45.412;10.852;2024-01-06T06:28:40;6.90;99.90
41547;DHT22;27271;45.412;10.852;2024-01-06T06:32:03;7.00;99.90
41547;DHT22;27271;45.412;10.852;2024-01-06T06:35:26;7.00;99.90
41547;DHT22;27271;45.412;10.852;2024-01-06T06:38:48;7.10;99.90
41547;DHT22;27271;45.412;10.852;2024-01-06T06:42:10;7.20;99.90
41547;DHT22;27271;45.412;10.852;2024-01-06T06:45:34;7.20;99.90
41547;DHT22;27271;45.412;10.852;2024-01-06T06:48:59;7.20;99.90
41547;DHT22;27271;45.412;10.852;2024-01-06T06:52:25;7.20;99.90
41547;DHT22;27271;45.412;10.852;2024-01-06T06:55:48;7.20;99.90
41547;DHT22;27271;45.412;10.852;2024-01-06T06:59:11;7.30;99.90
41547;DHT22;27271;45.412;10.852;2024-01-06T07:02:34;7.30;99.90
41547;DHT22;27271;45.412;10.852;2024-01-06T07:05:56;7.30;99.90
41547;DHT22;27271;45.412;10.852;2024-01-06T07:09:18;7.30;99.90
41547;DHT22;27271;45.412;10.852;2024-01-06T07:12:44;7.30;99.90
41547;DHT22;27271;45.412;10.852;2024-01-06T07:16:07;7.30;99.90
41547;DHT22;27271;45.412;10.852;2024-01-06T07:19:40;7.30;99.90
41547;DHT22;27271;45.412;10.852;2024-01-06T07:23:03;7.40;99.90
41547;DHT22;27271;45.412;10.852;2024-01-06T07:26:26;7.40;99.90
41547;DHT22;27271;45.412;10.852;2024-01-06T07:29:49;7.40;99.90
41547;DHT22;27271;45.412;10.852;2024-01-06T07:33:21;7.40;99.90
41547;DHT22;27271;45.412;10.852;2024-01-06T07:36:43;7.30;99.90
41547;DHT22;27271;45.412;10.852;2024-01-06T07:40:08;7.30;99.90
41547;DHT22;27271;45.412;10.852;2024-01-06T07:43:31;7.30;99.90
41547;DHT22;27271;45.412;10.852;2024-01-06T07:46:54;7.30;99.90
41547;DHT22;27271;45.412;10.852;2024-01-06T07:50:17;7.30;99.90
41547;DHT22;27271;45.412;10.852;2024-01-06T07:53:39;7.40;99.90
41547;DHT22;27271;45.412;10.852;2024-01-06T07:57:01;7.40;99.90
41547;DHT22;27271;45.412;10.852;2024-01-06T08:00:24;7.40;99.90
41547;DHT22;27271;45.412;10.852;2024-01-06T08:03:47;7.40;99.90
41547;DHT22;27271;45.412;10.852;2024-01-06T08:07:10;7.40;99.90
41547;DHT22;27271;45.412;10.852;2024-01-06T08:10:35;7.50;99.90
41547;DHT22;27271;45.412;10.852;2024-01-06T08:13:58;7.50;99.90
41547;DHT22;27271;45.412;10.852;2024-01-06T08:17:20;7.60;99.90
41547;DHT22;27271;45.412;10.852;2024-01-06T08:20:48;7.60;99.90
41547;DHT22;27271;45.412;10.852;2024-01-06T08:24:14;7.60;99.90
41547;DHT22;27271;45.412;10.852;2024-01-06T08:27:36;7.70;99.90
41547;DHT22;27271;45.412;10.852;2024-01-06T08:30:59;7.70;99.90
41547;DHT22;27271;45.412;10.852;2024-01-06T08:34:21;7.60;99.90
41547;DHT22;27271;45.412;10.852;2024-01-06T08:37:44;7.70;99.90
41547;DHT22;27271;45.412;10.852;2024-01-06T08:41:06;7.80;99.90
41547;DHT22;27271;45.412;10.852;2024-01-06T08:44:29;7.80;99.90
41547;DHT22;27271;45.412;10.852;2024-01-06T08:47:51;7.90;99.90
41547;DHT22;27271;45.412;10.852;2024-01-06T08:51:13;7.90;99.90
41547;DHT22;27271;45.412;10.852;2024-01-06T08:54:36;7.80;99.90
41547;DHT22;27271;45.412;10.852;2024-01-06T08:57:59;7.80;99.90
41547;DHT22;27271;45.412;10.852;2024-01-06T09:01:21;7.70;99.90
41547;DHT22;27271;45.412;10.852;2024-01-06T09:04:44;7.80;99.90
41547;DHT22;27271;45.412;10.852;2024-01-06T09:08:06;7.70;99.90
41547;DHT22;27271;45.412;10.852;2024-01-06T09:11:29;7.70;96.60
41547;DHT22;27271;45.412;10.852;2024-01-06T09:14:51;7.70;55.70
41547;DHT22;27271;45.412;10.852;2024-01-06T09:18:13;7.70;12.20
41547;DHT22;27271;45.412;10.852;2024-01-06T09:21:36;7.60;1.00
41547;DHT22;27271;45.412;10.852;2024-01-06T09:24:58;7.60;17.80
41547;DHT22;27271;45.412;10.852;2024-01-06T09:28:21;7.60;20.80
41547;DHT22;27271;45.412;10.852;2024-01-06T09:31:43;7.60;1.00
41547;DHT22;27271;45.412;10.852;2024-01-06T09:35:06;7.60;1.00
41547;DHT22;27271;45.412;10.852;2024-01-06T09:38:28;7.60;1.00
41547;DHT22;27271;45.412;10.852;2024-01-06T09:41:50;7.60;21.40
41547;DHT22;27271;45.412;10.852;2024-01-06T09:45:13;7.70;15.30
41547;DHT22;27271;45.412;10.852;2024-01-06T09:48:45;7.70;1.00
41547;DHT22;27271;45.412;10.852;2024-01-06T09:52:14;7.80;21.90
41547;DHT22;27271;45.412;10.852;2024-01-06T09:55:38;7.80;37.70
41547;DHT22;27271;45.412;10.852;2024-01-06T09:59:01;7.70;19.90
41547;DHT22;27271;45.412;10.852;2024-01-06T10:02:23;7.70;28.30
41547;DHT22;27271;45.412;10.852;2024-01-06T10:05:46;7.70;99.90
41547;DHT22;27271;45.412;10.852;2024-01-06T10:09:10;7.80;99.90
41547;DHT22;27271;45.412;10.852;2024-01-06T10:12:41;7.90;98.00
41547;DHT22;27271;45.412;10.852;2024-01-06T10:16:06;7.80;1.00
41547;DHT22;27271;45.412;10.852;2024-01-06T10:19:29;7.80;1.00
41547;DHT22;27271;45.412;10.852;2024-01-06T10:22:51;7.70;1.00
41547;DHT22;27271;45.412;10.852;2024-01-06T10:26:15;7.70;1.00
41547;DHT22;27271;45.412;10.852;2024-01-06T10:29:37;7.70;1.00
41547;DHT22;27271;45.412;10.852;2024-01-06T10:32:59;7.70;1.00
41547;DHT22;27271;45.412;10.852;2024-01-06T10:36:25;7.60;1.00
41547;DHT22;27271;45.412;10.852;2024-01-06T10:40:14;7.60;1.00
41547;DHT22;27271;45.412;10.852;2024-01-06T10:43:38;7.60;1.00
41547;DHT22;27271;45.412;10.852;2024-01-06T10:47:03;7.60;1.00
41547;DHT22;27271;45.412;10.852;2024-01-06T10:50:27;7.70;1.00
41547;DHT22;27271;45.412;10.852;2024-01-06T10:53:51;7.70;1.00
41547;DHT22;27271;45.412;10.852;2024-01-06T10:57:14;7.70;1.00
41547;DHT22;27271;45.412;10.852;2024-01-06T11:00:37;7.80;1.00
41547;DHT22;27271;45.412;10.852;2024-01-06T11:04:00;7.90;1.00
41547;DHT22;27271;45.412;10.852;2024-01-06T11:07:27;7.90;1.00
41547;DHT22;27271;45.412;10.852;2024-01-06T11:10:50;7.90;1.00
41547;DHT22;27271;45.412;10.852;2024-01-06T11:14:22;7.80;23.50
41547;DHT22;27271;45.412;10.852;2024-01-06T11:21:21;7.90;41.70
41547;DHT22;27271;45.412;10.852;2024-01-06T11:24:47;7.90;19.80
41547;DHT22;27271;45.412;10.852;2024-01-06T11:28:12;7.90;1.00
41547;DHT22;27271;45.412;10.852;2024-01-06T11:31:37;7.90;1.00
41547;DHT22;27271;45.412;10.852;2024-01-06T11:35:13;8.00;1.00
41547;DHT22;27271;45.412;10.852;2024-01-06T11:38:38;7.90;1.00
41547;DHT22;27271;45.412;10.852;2024-01-06T11:42:02;7.90;1.00
41547;DHT22;27271;45.412;10.852;2024-01-06T11:45:27;8.00;1.00
41547;DHT22;27271;45.412;10.852;2024-01-06T11:48:49;8.00;1.00
41547;DHT22;27271;45.412;10.852;2024-01-06T11:52:14;8.10;1.00
41547;DHT22;27271;45.412;10.852;2024-01-06T11:55:41;8.10;1.00
41547;DHT22;27271;45.412;10.852;2024-01-06T11:59:05;8.10;1.00
41547;DHT22;27271;45.412;10.852;2024-01-06T12:02:28;8.10;1.00
41547;DHT22;27271;45.412;10.852;2024-01-06T12:06:00;8.20;1.00
41547;DHT22;27271;45.412;10.852;2024-01-06T12:09:25;8.20;5.20
41547;DHT22;27271;45.412;10.852;2024-01-06T12:13:05;8.20;95.40
41547;DHT22;27271;45.412;10.852;2024-01-06T12:16:30;8.20;91.00
41547;DHT22;27271;45.412;10.852;2024-01-06T12:19:55;8.10;99.90
41547;DHT22;27271;45.412;10.852;2024-01-06T12:23:27;8.30;99.90
41547;DHT22;27271;45.412;10.852;2024-01-06T12:26:50;8.40;99.90
41547;DHT22;27271;45.412;10.852;2024-01-06T12:30:14;8.40;99.90
41547;DHT22;27271;45.412;10.852;2024-01-06T12:33:42;8.30;96.10
41547;DHT22;27271;45.412;10.852;2024-01-06T12:37:04;8.30;99.90
41547;DHT22;27271;45.412;10.852;2024-01-06T12:40:28;8.30;99.90
41547;DHT22;27271;45.412;10.852;2024-01-06T12:43:50;8.30;99.90
41547;DHT22;27271;45.412;10.852;2024-01-06T12:47:12;8.30;99.90
41547;DHT22;27271;45.412;10.852;2024-01-06T12:50:35;8.40;99.90
41547;DHT22;27271;45.412;10.852;2024-01-06T12:53:57;8.50;99.90
41547;DHT22;27271;45.412;10.852;2024-01-06T12:57:20;8.60;99.90
41547;DHT22;27271;45.412;10.852;2024-01-06T13:00:42;8.60;99.90
41547;DHT22;27271;45.412;10.852;2024-01-06T13:04:05;8.60;99.90
41547;DHT22;27271;45.412;10.852;2024-01-06T13:07:28;8.70;99.90
41547;DHT22;27271;45.412;10.852;2024-01-06T13:10:50;8.70;99.90
41547;DHT22;27271;45.412;10.852;2024-01-06T13:14:12;8.80;70.50
41547;DHT22;27271;45.412;10.852;2024-01-06T13:17:35;8.80;99.90
41547;DHT22;27271;45.412;10.852;2024-01-06T13:20:57;8.90;99.90
41547;DHT22;27271;45.412;10.852;2024-01-06T13:24:19;9.00;99.90
41547;DHT22;27271;45.412;10.852;2024-01-06T13:27:42;9.00;99.90
41547;DHT22;27271;45.412;10.852;2024-01-06T13:31:04;8.90;99.90
41547;DHT22;27271;45.412;10.852;2024-01-06T13:34:27;8.90;99.90
41547;DHT22;27271;45.412;10.852;2024-01-06T13:37:52;8.90;99.90
41547;DHT22;27271;45.412;10.852;2024-01-06T13:41:15;9.00;99.90
41547;DHT22;27271;45.412;10.852;2024-01-06T13:44:37;8.90;99.90
41547;DHT22;27271;45.412;10.852;2024-01-06T13:47:59;8.90;99.90
41547;DHT22;27271;45.412;10.852;2024-01-06T13:51:22;8.80;99.90
41547;DHT22;27271;45.412;10.852;2024-01-06T13:54:47;8.80;99.90
41547;DHT22;27271;45.412;10.852;2024-01-06T13:58:10;8.80;99.90
41547;DHT22;27271;45.412;10.852;2024-01-06T14:01:32;8.80;99.90
41547;DHT22;27271;45.412;10.852;2024-01-06T14:04:55;8.80;99.90
41547;DHT22;27271;45.412;10.852;2024-01-06T14:08:17;8.80;99.90
41547;DHT22;27271;45.412;10.852;2024-01-06T14:11:47;8.70;99.90
41547;DHT22;27271;45.412;10.852;2024-01-06T14:15:09;8.70;99.90
41547;DHT22;27271;45.412;10.852;2024-01-06T14:18:35;8.70;99.90
41547;DHT22;27271;45.412;10.852;2024-01-06T14:21:57;8.60;99.90
41547;DHT22;27271;45.412;10.852;2024-01-06T14:25:19;8.60;99.90
41547;DHT22;27271;45.412;10.852;2024-01-06T14:28:42;8.80;99.90
41547;DHT22;27271;45.412;10.852;2024-01-06T14:32:05;8.70;79.40
41547;DHT22;27271;45.412;10.852;2024-01-06T14:35:27;8.70;99.90
41547;DHT22;27271;45.412;10.852;2024-01-06T14:38:49;8.60;28.00
41547;DHT22;27271;45.412;10.852;2024-01-06T14:42:11;8.60;40.50
41547;DHT22;27271;45.412;10.852;2024-01-06T14:45:33;8.50;52.20
41547;DHT22;27271;45.412;10.852;2024-01-06T14:48:55;8.50;66.30
41547;DHT22;27271;45.412;10.852;2024-01-06T14:52:18;8.40;86.40
41547;DHT22;27271;45.412;10.852;2024-01-06T14:55:40;8.30;58.90
41547;DHT22;27271;45.412;10.852;2024-01-06T14:59:03;8.30;99.90
41547;DHT22;27271;45.412;10.852;2024-01-06T15:02:25;8.30;99.90
41547;DHT22;27271;45.412;10.852;2024-01-06T15:05:47;8.30;99.90
41547;DHT22;27271;45.412;10.852;2024-01-06T15:09:10;8.20;99.90
41547;DHT22;27271;45.412;10.852;2024-01-06T15:12:33;8.20;99.90
41547;DHT22;27271;45.412;10.852;2024-01-06T15:15:55;8.20;99.90
41547;DHT22;27271;45.412;10.852;2024-01-06T15:19:18;8.20;99.90
41547;DHT22;27271;45.412;10.852;2024-01-06T15:22:40;8.10;99.90
41547;DHT22;27271;45.412;10.852;2024-01-06T15:26:03;8.10;99.90
41547;DHT22;27271;45.412;10.852;2024-01-06T15:29:28;8.00;99.90
41547;DHT22;27271;45.412;10.852;2024-01-06T15:32:50;8.00;99.90
41547;DHT22;27271;45.412;10.852;2024-01-06T15:36:12;8.10;99.90
41547;DHT22;27271;45.412;10.852;2024-01-06T15:39:34;8.10;99.90
41547;DHT22;27271;45.412;10.852;2024-01-06T15:42:57;8.00;99.90
41547;DHT22;27271;45.412;10.852;2024-01-06T15:46:20;7.90;99.90
41547;DHT22;27271;45.412;10.852;2024-01-06T15:49:42;7.70;97.90
41547;DHT22;27271;45.412;10.852;2024-01-06T15:53:05;7.70;99.90
41547;DHT22;27271;45.412;10.852;2024-01-06T15:56:27;7.70;99.90
41547;DHT22;27271;45.412;10.852;2024-01-06T15:59:49;7.80;99.90
41547;DHT22;27271;45.412;10.852;2024-01-06T16:03:12;7.80;99.90
41547;DHT22;27271;45.412;10.852;2024-01-06T16:06:35;7.80;99.90
41547;DHT22;27271;45.412;10.852;2024-01-06T16:09:58;7.80;99.90
41547;DHT22;27271;45.412;10.852;2024-01-06T16:13:21;7.70;99.90
41547;DHT22;27271;45.412;10.852;2024-01-06T16:16:43;7.70;99.90
41547;DHT22;27271;45.412;10.852;2024-01-06T16:20:06;7.70;99.90
41547;DHT22;27271;45.412;10.852;2024-01-06T16:23:29;7.80;99.90
41547;DHT22;27271;45.412;10.852;2024-01-06T16:26:52;7.70;99.90
41547;DHT22;27271;45.412;10.852;2024-01-06T16:30:15;7.70;99.90
41547;DHT22;27271;45.412;10.852;2024-01-06T16:33:37;7.70;99.90
41547;DHT22;27271;45.412;10.852;2024-01-06T16:36:59;7.70;99.90
41547;DHT22;27271;45.412;10.852;2024-01-06T16:40:25;7.80;99.90
41547;DHT22;27271;45.412;10.852;2024-01-06T16:43:47;7.80;99.90
41547;DHT22;27271;45.412;10.852;2024-01-06T16:47:19;7.70;99.90
41547;DHT22;27271;45.412;10.852;2024-01-06T16:50:46;7.60;99.90
41547;DHT22;27271;45.412;10.852;2024-01-06T16:54:11;7.60;99.90
41547;DHT22;27271;45.412;10.852;2024-01-06T16:57:34;7.60;99.90
41547;DHT22;27271;45.412;10.852;2024-01-06T17:00:57;7.70;99.90
41547;DHT22;27271;45.412;10.852;2024-01-06T17:04:19;7.60;99.90
41547;DHT22;27271;45.412;10.852;2024-01-06T17:07:43;7.60;99.90
41547;DHT22;27271;45.412;10.852;2024-01-06T17:11:09;7.70;99.90
41547;DHT22;27271;45.412;10.852;2024-01-06T17:14:32;7.70;99.90
41547;DHT22;27271;45.412;10.852;2024-01-06T17:17:54;7.70;99.90
41547;DHT22;27271;45.412;10.852;2024-01-06T17:21:17;7.60;99.90
41547;DHT22;27271;45.412;10.852;2024-01-06T17:24:39;7.60;99.90
41547;DHT22;27271;45.412;10.852;2024-01-06T17:28:02;7.60;99.90
41547;DHT22;27271;45.412;10.852;2024-01-06T17:31:24;7.80;99.90
41547;DHT22;27271;45.412;10.852;2024-01-06T17:34:50;7.70;99.90
41547;DHT22;27271;45.412;10.852;2024-01-06T17:38:13;7.70;99.90
41547;DHT22;27271;45.412;10.852;2024-01-06T17:41:36;7.60;99.90
41547;DHT22;27271;45.412;10.852;2024-01-06T17:45:14;7.60;99.90
41547;DHT22;27271;45.412;10.852;2024-01-06T17:48:36;7.50;99.90
41547;DHT22;27271;45.412;10.852;2024-01-06T17:51:59;7.70;99.90
41547;DHT22;27271;45.412;10.852;2024-01-06T17:55:21;7.70;99.90
41547;DHT22;27271;45.412;10.852;2024-01-06T17:58:43;7.60;99.90
41547;DHT22;27271;45.412;10.852;2024-01-06T18:02:06;7.70;99.90
41547;DHT22;27271;45.412;10.852;2024-01-06T18:05:32;7.80;99.90
41547;DHT22;27271;45.412;10.852;2024-01-06T18:09:00;7.70;99.90
41547;DHT22;27271;45.412;10.852;2024-01-06T18:12:23;7.70;99.90
41547;DHT22;27271;45.412;10.852;2024-01-06T18:15:45;7.60;99.90
41547;DHT22;27271;45.412;10.852;2024-01-06T18:19:08;7.60;99.90
41547;DHT22;27271;45.412;10.852;2024-01-06T18:22:30;7.60;99.90
41547;DHT22;27271;45.412;10.852;2024-01-06T18:25:53;7.70;99.90
41547;DHT22;27271;45.412;10.852;2024-01-06T18:29:21;7.80;99.90
41547;DHT22;27271;45.412;10.852;2024-01-06T18:32:44;7.70;99.90
41547;DHT22;27271;45.412;10.852;2024-01-06T18:36:07;7.60;99.90
41547;DHT22;27271;45.412;10.852;2024-01-06T18:39:29;7.60;99.90
41547;DHT22;27271;45.412;10.852;2024-01-06T18:42:51;7.80;99.90
41547;DHT22;27271;45.412;10.852;2024-01-06T18:46:14;7.70;99.90
41547;DHT22;27271;45.412;10.852;2024-01-06T18:49:38;7.80;99.90
41547;DHT22;27271;45.412;10.852;2024-01-06T18:53:00;7.80;99.90
41547;DHT22;27271;45.412;10.852;2024-01-06T18:56:23;7.80;99.90
41547;DHT22;27271;45.412;10.852;2024-01-06T18:59:49;7.70;99.90
41547;DHT22;27271;45.412;10.852;2024-01-06T19:03:13;7.70;99.90
41547;DHT22;27271;45.412;10.852;2024-01-06T19:06:35;7.60;99.90
41547;DHT22;27271;45.412;10.852;2024-01-06T19:09:58;7.60;99.90
41547;DHT22;27271;45.412;10.852;2024-01-06T19:13:20;7.70;99.90
41547;DHT22;27271;45.412;10.852;2024-01-06T19:16:42;7.60;99.90
41547;DHT22;27271;45.412;10.852;2024-01-06T19:20:08;7.50;99.90
41547;DHT22;27271;45.412;10.852;2024-01-06T19:23:34;7.40;99.90
41547;DHT22;27271;45.412;10.852;2024-01-06T19:26:57;7.40;99.90
41547;DHT22;27271;45.412;10.852;2024-01-06T19:30:21;7.40;99.90
41547;DHT22;27271;45.412;10.852;2024-01-06T19:33:43;7.50;99.90
41547;DHT22;27271;45.412;10.852;2024-01-06T19:37:07;7.50;99.90
41547;DHT22;27271;45.412;10.852;2024-01-06T19:40:29;7.60;99.90
41547;DHT22;27271;45.412;10.852;2024-01-06T19:43:55;7.60;99.90
41547;DHT22;27271;45.412;10.852;2024-01-06T19:47:22;7.60;99.90
41547;DHT22;27271;45.412;10.852;2024-01-06T19:50:47;7.50;99.90
41547;DHT22;27271;45.412;10.852;2024-01-06T19:54:23;7.50;99.90
41547;DHT22;27271;45.412;10.852;2024-01-06T19:57:52;7.60;99.90
41547;DHT22;27271;45.412;10.852;2024-01-06T20:01:18;7.60;99.90
41547;DHT22;27271;45.412;10.852;2024-01-06T20:04:43;7.60;99.90
41547;DHT22;27271;45.412;10.852;2024-01-06T20:08:48;7.50;98.70
41547;DHT22;27271;45.412;10.852;2024-01-06T20:16:47;7.50;99.90
41547;DHT22;27271;45.412;10.852;2024-01-06T20:20:10;7.60;99.90
41547;DHT22;27271;45.412;10.852;2024-01-06T20:23:36;7.50;99.90
41547;DHT22;27271;45.412;10.852;2024-01-06T20:27:02;7.40;99.90
41547;DHT22;27271;45.412;10.852;2024-01-06T20:30:25;7.50;99.90
41547;DHT22;27271;45.412;10.852;2024-01-06T20:33:48;7.40;99.90
41547;DHT22;27271;45.412;10.852;2024-01-06T20:37:25;7.40;99.90
41547;DHT22;27271;45.412;10.852;2024-01-06T20:40:48;7.40;99.90
41547;DHT22;27271;45.412;10.852;2024-01-06T20:44:11;7.50;99.90
41547;DHT22;27271;45.412;10.852;2024-01-06T20:47:34;7.40;99.90
41547;DHT22;27271;45.412;10.852;2024-01-06T20:51:02;7.40;99.90
41547;DHT22;27271;45.412;10.852;2024-01-06T20:54:33;7.40;99.90
41547;DHT22;27271;45.412;10.852;2024-01-06T20:58:15;7.30;99.90
41547;DHT22;27271;45.412;10.852;2024-01-06T21:01:42;7.30;99.90
41547;DHT22;27271;45.412;10.852;2024-01-06T21:05:06;7.30;99.90
41547;DHT22;27271;45.412;10.852;2024-01-06T21:08:29;7.20;97.30
41547;DHT22;27271;45.412;10.852;2024-01-06T21:11:54;7.20;99.90
41547;DHT22;27271;45.412;10.852;2024-01-06T21:15:35;7.10;99.90
41547;DHT22;27271;45.412;10.852;2024-01-06T21:19:00;7.10;99.90
41547;DHT22;27271;45.412;10.852;2024-01-06T21:22:32;7.00;99.90
41547;DHT22;27271;45.412;10.852;2024-01-06T21:25:56;7.00;99.90
41547;DHT22;27271;45.412;10.852;2024-01-06T21:29:19;7.00;99.90
41547;DHT22;27271;45.412;10.852;2024-01-06T21:32:59;7.00;99.90
41547;DHT22;27271;45.412;10.852;2024-01-06T21:36:41;7.00;99.90
41547;DHT22;27271;45.412;10.852;2024-01-06T21:40:05;7.00;99.90
41547;DHT22;27271;45.412;10.852;2024-01-06T21:43:30;6.90;99.90
41547;DHT22;27271;45.412;10.852;2024-01-06T21:46:54;6.90;99.90
41547;DHT22;27271;45.412;10.852;2024-01-06T21:50:17;7.00;99.90
41547;DHT22;27271;45.412;10.852;2024-01-06T21:53:42;6.90;99.90
41547;DHT22;27271;45.412;10.852;2024-01-06T21:57:04;6.90;99.90
41547;DHT22;27271;45.412;10.852;2024-01-06T22:00:30;6.90;99.90
41547;DHT22;27271;45.412;10.852;2024-01-06T22:04:16;6.80;99.90
41547;DHT22;27271;45.412;10.852;2024-01-06T22:08:06;6.80;99.90
41547;DHT22;27271;45.412;10.852;2024-01-06T22:11:41;6.80;99.90
41547;DHT22;27271;45.412;10.852;2024-01-06T22:15:16;6.80;99.90
41547;DHT22;27271;45.412;10.852;2024-01-06T22:18:38;6.80;99.90
41547;DHT22;27271;45.412;10.852;2024-01-06T22:22:01;6.90;89.30
41547;DHT22;27271;45.412;10.852;2024-01-06T22:25:23;6.90;52.40
41547;DHT22;27271;45.412;10.852;2024-01-06T22:28:46;6.90;16.00
41547;DHT22;27271;45.412;10.852;2024-01-06T22:32:31;6.80;40.60
41547;DHT22;27271;45.412;10.852;2024-01-06T22:35:55;6.80;79.30
41547;DHT22;27271;45.412;10.852;2024-01-06T22:39:22;6.90;29.00
41547;DHT22;27271;45.412;10.852;2024-01-06T22:42:50;6.90;1.00
41547;DHT22;27271;45.412;10.852;2024-01-06T22:46:13;6.80;1.00
41547;DHT22;27271;45.412;10.852;2024-01-06T22:49:36;6.80;11.00
41547;DHT22;27271;45.412;10.852;2024-01-06T22:52:58;6.80;31.20
41547;DHT22;27271;45.412;10.852;2024-01-06T22:56:21;6.70;71.60
41547;DHT22;27271;45.412;10.852;2024-01-06T22:59:44;6.80;99.90
41547;DHT22;27271;45.412;10.852;2024-01-06T23:03:06;6.70;55.10
41547;DHT22;27271;45.412;10.852;2024-01-06T23:06:33;6.70;55.80
41547;DHT22;27271;45.412;10.852;2024-01-06T23:10:17;6.70;8.30
41547;DHT22;27271;45.412;10.852;2024-01-06T23:13:43;6.80;1.00
41547;DHT22;27271;45.412;10.852;2024-01-06T23:17:05;6.80;1.00
41547;DHT22;27271;45.412;10.852;2024-01-06T23:20:28;6.90;1.00
41547;DHT22;27271;45.412;10.852;2024-01-06T23:23:51;6.90;1.00
41547;DHT22;27271;45.412;10.852;2024-01-06T23:27:13;6.80;1.00
